VLG81AB LECO-LEBL
Flight info
| Callsign | VLG81AB |
|---|---|
| Flight time | 1h 14m |
| Altitude | 32000 |
| Route | ROXER DCT LASKU DCT RONSI DCT OBETO M190 BLV M601 RONNY DCT SURCO M601 GRAUS |
| Aircraft | A320/M-SDFGHIJ1LORVWXY/LB1 |
Departure
| Time | 2026-05-04 09:02 |
|---|---|
| Airport | A Coruña Airport (LECO) |
Arrival
| Time | 2026-05-04 10:16 |
|---|---|
| Airport | Josep Tarradellas Barcelona-El Prat Airport (LEBL) |
| Time | Latitude | Longitude | Altitude | Speed | Heading |
|---|---|---|---|---|---|
| 2026-05-04 08:40 | 43.30206 | -8.38022 | 274 ft | 0 kts | 9° |
| 2026-05-04 08:57 | 43.30211 | -8.37961 | 274 ft | 2 kts | 52° |
| 2026-05-04 09:01 | 43.30940 | -8.37123 | 279 ft | 0 kts | 211° |
| 2026-05-04 09:01 | 43.30936 | -8.37127 | 278 ft | 8 kts | 211° |
| 2026-05-04 09:01 | 43.30624 | -8.37381 | 278 ft | 93 kts | 210° |
| 2026-05-04 09:01 | 43.29872 | -8.38004 | 299 ft | 153 kts | 213° |
| 2026-05-04 09:02 | 43.28976 | -8.38760 | 995 ft | 154 kts | 211° |
| 2026-05-04 09:02 | 43.27927 | -8.39119 | 1732 ft | 162 kts | 176° |
| 2026-05-04 09:02 | 43.26834 | -8.38635 | 2304 ft | 175 kts | 150° |
| 2026-05-04 09:02 | 43.25913 | -8.37381 | 2491 ft | 201 kts | 120° |
| 2026-05-04 09:03 | 43.25622 | -8.35421 | 2763 ft | 223 kts | 80° |
| 2026-05-04 09:03 | 43.26341 | -8.33567 | 3397 ft | 226 kts | 37° |
| 2026-05-04 09:03 | 43.27654 | -8.32381 | 4159 ft | 227 kts | 28° |
| 2026-05-04 09:03 | 43.29004 | -8.31246 | 4988 ft | 228 kts | 28° |
| 2026-05-04 09:04 | 43.30357 | -8.30116 | 5831 ft | 228 kts | 28° |
| 2026-05-04 09:04 | 43.31702 | -8.28966 | 6673 ft | 228 kts | 29° |
| 2026-05-04 09:04 | 43.33037 | -8.27796 | 7445 ft | 229 kts | 30° |
| 2026-05-04 09:04 | 43.34218 | -8.26272 | 8100 ft | 240 kts | 54° |
| 2026-05-04 09:05 | 43.34916 | -8.24086 | 8496 ft | 264 kts | 72° |
| 2026-05-04 09:05 | 43.35445 | -8.21549 | 8852 ft | 287 kts | 73° |
| 2026-05-04 09:05 | 43.35994 | -8.18858 | 9494 ft | 297 kts | 73° |
| 2026-05-04 09:05 | 43.36438 | -8.16061 | 10258 ft | 303 kts | 85° |
| 2026-05-04 09:06 | 43.36329 | -8.13129 | 10784 ft | 318 kts | 102° |
| 2026-05-04 09:07 | 43.31914 | -7.90221 | 15259 ft | 371 kts | 105° |
| 2026-05-04 09:08 | 43.31255 | -7.86777 | 15911 ft | 375 kts | 105° |
| 2026-05-04 09:08 | 43.30585 | -7.83295 | 16583 ft | 379 kts | 105° |
| 2026-05-04 09:08 | 43.29906 | -7.79781 | 17245 ft | 383 kts | 105° |
| 2026-05-04 09:08 | 43.29220 | -7.76233 | 17907 ft | 387 kts | 105° |
| 2026-05-04 09:09 | 43.28522 | -7.72635 | 18511 ft | 391 kts | 105° |
| 2026-05-04 09:09 | 43.27817 | -7.69012 | 19100 ft | 395 kts | 105° |
| 2026-05-04 09:09 | 43.27103 | -7.65346 | 19687 ft | 400 kts | 105° |
| 2026-05-04 09:09 | 43.26382 | -7.61638 | 20291 ft | 404 kts | 106° |
| 2026-05-04 09:10 | 43.25652 | -7.57900 | 20909 ft | 408 kts | 106° |
| 2026-05-04 09:10 | 43.24913 | -7.54124 | 21510 ft | 411 kts | 106° |
| 2026-05-04 09:10 | 43.24168 | -7.50321 | 22076 ft | 416 kts | 106° |
| 2026-05-04 09:10 | 43.23414 | -7.46474 | 22639 ft | 420 kts | 106° |
| 2026-05-04 09:11 | 43.22649 | -7.42581 | 23210 ft | 424 kts | 106° |
| 2026-05-04 09:11 | 43.21971 | -7.38636 | 23748 ft | 429 kts | 99° |
| 2026-05-04 09:11 | 43.21725 | -7.34591 | 24229 ft | 433 kts | 90° |
| 2026-05-04 09:11 | 43.21965 | -7.30465 | 24736 ft | 436 kts | 80° |
| 2026-05-04 09:12 | 43.22506 | -7.26366 | 25239 ft | 439 kts | 79° |
| 2026-05-04 09:12 | 43.23047 | -7.22234 | 25747 ft | 442 kts | 80° |
| 2026-05-04 09:14 | 43.26774 | -6.92546 | 29202 ft | 461 kts | 81° |
| 2026-05-04 09:14 | 43.27316 | -6.88203 | 29609 ft | 464 kts | 81° |
| 2026-05-04 09:14 | 43.27862 | -6.83824 | 30021 ft | 467 kts | 80° |
| 2026-05-04 09:14 | 43.28411 | -6.79415 | 30364 ft | 470 kts | 81° |
| 2026-05-04 09:15 | 43.28957 | -6.74989 | 30802 ft | 469 kts | 81° |
| 2026-05-04 09:15 | 43.29495 | -6.70575 | 31266 ft | 469 kts | 81° |
| 2026-05-04 09:15 | 43.30032 | -6.66169 | 31723 ft | 468 kts | 81° |
| 2026-05-04 09:15 | 43.30571 | -6.61763 | 32172 ft | 468 kts | 81° |
| 2026-05-04 09:17 | 43.34797 | -6.26569 | 35522 ft | 466 kts | 82° |
| 2026-05-04 09:18 | 43.35319 | -6.22176 | 35871 ft | 466 kts | 82° |
| 2026-05-04 09:18 | 43.35839 | -6.17776 | 36020 ft | 468 kts | 82° |
| 2026-05-04 09:18 | 43.36890 | -6.08791 | 36045 ft | 484 kts | 82° |
| 2026-05-04 09:19 | 43.37958 | -5.99600 | 36052 ft | 488 kts | 82° |
| 2026-05-04 09:19 | 43.39031 | -5.90377 | 36054 ft | 489 kts | 82° |
| 2026-05-04 09:20 | 43.40087 | -5.81155 | 36053 ft | 489 kts | 82° |
| 2026-05-04 09:20 | 43.41147 | -5.71915 | 36054 ft | 489 kts | 82° |
| 2026-05-04 09:21 | 43.42194 | -5.62674 | 36056 ft | 489 kts | 83° |
| 2026-05-04 09:21 | 43.43229 | -5.53428 | 36057 ft | 489 kts | 83° |
| 2026-05-04 09:22 | 43.44260 | -5.44172 | 36058 ft | 489 kts | 83° |
| 2026-05-04 09:22 | 43.45288 | -5.34907 | 36060 ft | 490 kts | 83° |
| 2026-05-04 09:23 | 43.46307 | -5.25638 | 36056 ft | 490 kts | 83° |
| 2026-05-04 09:23 | 43.47313 | -5.16367 | 36060 ft | 490 kts | 83° |
| 2026-05-04 09:25 | 43.50257 | -4.83873 | 36055 ft | 485 kts | 97° |
| 2026-05-04 09:25 | 43.50013 | -4.79241 | 36057 ft | 485 kts | 97° |
| 2026-05-04 09:26 | 43.49517 | -4.70035 | 36058 ft | 485 kts | 97° |
| 2026-05-04 09:26 | 43.49012 | -4.60778 | 36061 ft | 485 kts | 97° |
| 2026-05-04 09:27 | 43.48504 | -4.51459 | 36044 ft | 485 kts | 97° |
| 2026-05-04 09:27 | 43.48026 | -4.42248 | 36050 ft | 486 kts | 97° |
| 2026-05-04 09:28 | 43.47587 | -4.32958 | 36054 ft | 486 kts | 97° |
| 2026-05-04 09:28 | 43.47091 | -4.23631 | 36058 ft | 486 kts | 98° |
| 2026-05-04 09:29 | 43.46509 | -4.14430 | 36062 ft | 486 kts | 98° |
| 2026-05-04 09:29 | 43.45913 | -4.05173 | 36065 ft | 486 kts | 98° |
| 2026-05-04 09:30 | 43.45329 | -3.95912 | 36065 ft | 486 kts | 98° |
| 2026-05-04 09:30 | 43.44470 | -3.86719 | 36068 ft | 483 kts | 105° |
| 2026-05-04 09:31 | 43.43142 | -3.77677 | 36053 ft | 482 kts | 105° |
| 2026-05-04 09:31 | 43.41807 | -3.68635 | 36054 ft | 482 kts | 105° |
| 2026-05-04 09:32 | 43.40464 | -3.59599 | 36057 ft | 482 kts | 105° |
| 2026-05-04 09:34 | 43.35057 | -3.23486 | 36034 ft | 483 kts | 105° |
| 2026-05-04 09:34 | 43.33716 | -3.14438 | 36033 ft | 483 kts | 105° |
| 2026-05-04 09:35 | 43.32359 | -3.05392 | 36031 ft | 483 kts | 105° |
| 2026-05-04 09:35 | 43.30967 | -2.96353 | 36013 ft | 482 kts | 109° |
| 2026-05-04 09:37 | 43.19614 | -2.69143 | 36036 ft | 470 kts | 127° |
| 2026-05-04 09:37 | 43.17868 | -2.65366 | 36014 ft | 470 kts | 128° |
| 2026-05-04 09:38 | 43.14357 | -2.57797 | 36021 ft | 471 kts | 128° |
| 2026-05-04 09:38 | 43.10827 | -2.50228 | 36019 ft | 471 kts | 128° |
| 2026-05-04 09:39 | 43.07896 | -2.43942 | 36018 ft | 472 kts | 128° |
| 2026-05-04 09:39 | 43.04359 | -2.36384 | 36023 ft | 472 kts | 128° |
| 2026-05-04 09:40 | 43.00817 | -2.28835 | 35992 ft | 472 kts | 128° |
| 2026-05-04 09:40 | 42.97266 | -2.21296 | 35987 ft | 472 kts | 129° |
| 2026-05-04 09:42 | 42.83172 | -1.91031 | 35998 ft | 472 kts | 129° |
| 2026-05-04 09:43 | 42.79628 | -1.83496 | 35995 ft | 472 kts | 129° |
| 2026-05-04 09:43 | 42.76086 | -1.75975 | 36001 ft | 472 kts | 129° |
| 2026-05-04 09:44 | 42.72696 | -1.68285 | 36004 ft | 479 kts | 121° |
| 2026-05-04 09:46 | 42.61207 | -1.35657 | 35979 ft | 480 kts | 122° |
| 2026-05-04 09:46 | 42.58293 | -1.27438 | 35969 ft | 480 kts | 122° |
| 2026-05-04 09:47 | 42.55391 | -1.19268 | 35973 ft | 481 kts | 122° |
| 2026-05-04 09:49 | 42.43727 | -0.86701 | 35978 ft | 482 kts | 123° |
| 2026-05-04 09:51 | 42.33407 | -0.58219 | 35966 ft | 482 kts | 123° |
| 2026-05-04 09:51 | 42.30447 | -0.50110 | 35974 ft | 482 kts | 123° |
| 2026-05-04 09:52 | 42.27472 | -0.41978 | 35980 ft | 482 kts | 123° |
| 2026-05-04 09:52 | 42.24498 | -0.33871 | 35982 ft | 482 kts | 123° |
| 2026-05-04 09:53 | 42.21511 | -0.25764 | 36004 ft | 482 kts | 123° |
| 2026-05-04 09:53 | 42.20018 | -0.21719 | 35640 ft | 484 kts | 123° |
| 2026-05-04 09:53 | 42.18520 | -0.17658 | 35091 ft | 485 kts | 124° |
| 2026-05-04 09:53 | 42.17009 | -0.13568 | 34508 ft | 486 kts | 124° |
| 2026-05-04 09:54 | 42.15507 | -0.09498 | 34030 ft | 485 kts | 124° |
| 2026-05-04 09:54 | 42.14001 | -0.05424 | 33461 ft | 484 kts | 124° |
| 2026-05-04 09:54 | 42.12495 | -0.01371 | 32969 ft | 484 kts | 124° |
| 2026-05-04 09:54 | 42.10987 | 0.02674 | 32440 ft | 484 kts | 124° |
| 2026-05-04 09:55 | 42.09471 | 0.06738 | 31924 ft | 485 kts | 124° |
| 2026-05-04 09:55 | 42.07962 | 0.10786 | 31395 ft | 485 kts | 124° |
| 2026-05-04 09:55 | 42.06447 | 0.14849 | 30873 ft | 485 kts | 124° |
| 2026-05-04 09:55 | 42.04933 | 0.18902 | 30355 ft | 484 kts | 124° |
| 2026-05-04 09:56 | 42.03420 | 0.22947 | 29798 ft | 484 kts | 123° |
| 2026-05-04 09:56 | 42.01907 | 0.26990 | 29295 ft | 485 kts | 123° |
| 2026-05-04 09:56 | 42.00384 | 0.31049 | 28765 ft | 486 kts | 123° |
| 2026-05-04 09:56 | 41.98862 | 0.35106 | 28282 ft | 487 kts | 123° |
| 2026-05-04 09:57 | 41.97479 | 0.39302 | 27770 ft | 496 kts | 115° |
| 2026-05-04 09:57 | 41.96347 | 0.43703 | 27341 ft | 500 kts | 115° |
| 2026-05-04 09:57 | 41.95214 | 0.48124 | 26862 ft | 502 kts | 115° |
| 2026-05-04 09:57 | 41.94078 | 0.52559 | 26399 ft | 503 kts | 115° |
| 2026-05-04 09:58 | 41.92941 | 0.56998 | 25945 ft | 504 kts | 115° |
| 2026-05-04 09:58 | 41.91793 | 0.61464 | 25452 ft | 505 kts | 115° |
| 2026-05-04 09:58 | 41.90644 | 0.65921 | 24983 ft | 506 kts | 115° |
| 2026-05-04 10:00 | 41.82575 | 0.96939 | 22009 ft | 470 kts | 114° |
| 2026-05-04 10:00 | 41.81522 | 1.01000 | 21874 ft | 452 kts | 115° |
| 2026-05-04 10:02 | 41.75091 | 1.25321 | 19333 ft | 364 kts | 115° |
| 2026-05-04 10:04 | 41.69078 | 1.47907 | 15809 ft | 368 kts | 114° |
| 2026-05-04 10:04 | 41.68217 | 1.51123 | 15330 ft | 367 kts | 114° |
| 2026-05-04 10:04 | 41.67355 | 1.54335 | 14811 ft | 366 kts | 114° |
| 2026-05-04 10:04 | 41.66507 | 1.57492 | 14339 ft | 365 kts | 114° |
| 2026-05-04 10:05 | 41.65649 | 1.60682 | 13857 ft | 364 kts | 114° |
| 2026-05-04 10:05 | 41.64785 | 1.63899 | 13335 ft | 362 kts | 114° |
| 2026-05-04 10:05 | 41.63945 | 1.67022 | 12816 ft | 361 kts | 114° |
| 2026-05-04 10:05 | 41.63098 | 1.70167 | 12313 ft | 359 kts | 114° |
| 2026-05-04 10:06 | 41.62267 | 1.73262 | 12069 ft | 350 kts | 113° |
| 2026-05-04 10:06 | 41.61459 | 1.76272 | 11937 ft | 338 kts | 114° |
| 2026-05-04 10:06 | 41.60673 | 1.79186 | 11793 ft | 328 kts | 114° |
| 2026-05-04 10:08 | 41.56181 | 1.95619 | 9858 ft | 312 kts | 117° |
| 2026-05-04 10:08 | 41.55149 | 1.98189 | 9061 ft | 310 kts | 126° |
| 2026-05-04 10:08 | 41.53993 | 2.00562 | 8374 ft | 307 kts | 127° |
| 2026-05-04 10:08 | 41.52827 | 2.02920 | 7739 ft | 303 kts | 127° |
| 2026-05-04 10:09 | 41.51666 | 2.05243 | 7121 ft | 300 kts | 127° |
| 2026-05-04 10:09 | 41.50506 | 2.07535 | 6523 ft | 297 kts | 127° |
| 2026-05-04 10:09 | 41.49349 | 2.09813 | 5892 ft | 295 kts | 127° |
| 2026-05-04 10:09 | 41.48207 | 2.12055 | 5354 ft | 290 kts | 127° |
| 2026-05-04 10:10 | 41.47079 | 2.14261 | 4855 ft | 284 kts | 127° |
| 2026-05-04 10:10 | 41.45976 | 2.16416 | 4415 ft | 278 kts | 127° |
| 2026-05-04 10:10 | 41.44901 | 2.18516 | 4009 ft | 270 kts | 127° |
| 2026-05-04 10:10 | 41.43819 | 2.20512 | 3646 ft | 259 kts | 136° |
| 2026-05-04 10:11 | 41.42461 | 2.21878 | 3549 ft | 234 kts | 158° |
| 2026-05-04 10:11 | 41.40962 | 2.22513 | 3360 ft | 222 kts | 170° |
| 2026-05-04 10:11 | 41.39459 | 2.22980 | 3078 ft | 221 kts | 171° |
| 2026-05-04 10:11 | 41.37961 | 2.23438 | 2780 ft | 220 kts | 171° |
| 2026-05-04 10:12 | 41.36464 | 2.23815 | 2421 ft | 219 kts | 183° |
| 2026-05-04 10:12 | 41.35088 | 2.23120 | 2056 ft | 212 kts | 228° |
| 2026-05-04 10:12 | 41.34363 | 2.21526 | 1816 ft | 196 kts | 246° |
| 2026-05-04 10:12 | 41.33834 | 2.19955 | 1591 ft | 175 kts | 246° |
| 2026-05-04 10:13 | 41.33361 | 2.18555 | 1354 ft | 160 kts | 247° |
| 2026-05-04 10:13 | 41.32922 | 2.17263 | 1144 ft | 149 kts | 246° |
| 2026-05-04 10:13 | 41.32506 | 2.16043 | 949 ft | 141 kts | 246° |
| 2026-05-04 10:13 | 41.32102 | 2.14857 | 768 ft | 140 kts | 245° |
| 2026-05-04 10:14 | 41.31705 | 2.13682 | 592 ft | 141 kts | 244° |
| 2026-05-04 10:14 | 41.31297 | 2.12504 | 383 ft | 139 kts | 243° |
| 2026-05-04 10:16 | 41.29540 | 2.07776 | 16 ft | 12 kts | 216° |
| 2026-05-04 10:16 | 41.29511 | 2.07748 | 17 ft | 0 kts | 216° |
| 2026-05-04 10:16 | 41.29505 | 2.07742 | 16 ft | 2 kts | 216° |
| 2026-05-04 10:17 | 41.29488 | 2.07726 | 16 ft | 4 kts | 216° |
| 2026-05-04 10:17 | 41.29460 | 2.07692 | 16 ft | 7 kts | 215° |
| 2026-05-04 10:19 | 41.29361 | 2.07817 | 17 ft | 0 kts | 65° |